createdAt,value
2022-10-25T00:00:26.440Z,1.40
2022-10-25T00:02:53.161Z,1.42
2022-10-25T00:05:19.881Z,1.23
2022-10-25T00:07:46.935Z,1.42
2022-10-25T00:10:13.932Z,0.80
2022-10-25T00:12:45.498Z,1.67
2022-10-25T00:17:41.396Z,1.30
2022-10-25T00:20:09.195Z,1.55
2022-10-25T00:22:36.032Z,1.95
2022-10-25T00:25:03.393Z,1.38
2022-10-25T00:27:30.138Z,1.35
2022-10-25T00:29:56.868Z,1.30
2022-10-25T00:32:23.783Z,1.58
2022-10-25T00:34:50.844Z,1.40
2022-10-25T00:37:18.116Z,1.17
2022-10-25T00:39:46.006Z,1.27
2022-10-25T00:42:22.202Z,1.45
2022-10-25T00:44:57.192Z,1.42
2022-10-25T00:47:29.998Z,1.40
2022-10-25T00:50:17.142Z,1.52
2022-10-25T00:52:47.508Z,1.60
2022-10-25T00:55:17.521Z,1.77
2022-10-25T00:57:50.543Z,1.35
2022-10-25T01:00:17.411Z,1.60
2022-10-25T01:02:44.398Z,1.60
2022-10-25T01:05:12.044Z,1.67
2022-10-25T01:07:38.977Z,1.63
2022-10-25T01:10:06.138Z,1.25
2022-10-25T01:12:33.657Z,1.30
2022-10-25T01:15:01.283Z,2.28
2022-10-25T01:17:48.975Z,1.75
2022-10-25T01:20:49.747Z,1.55
2022-10-25T01:23:35.695Z,1.50
2022-10-25T01:26:27.113Z,1.50
2022-10-25T01:29:32.803Z,1.75
2022-10-25T01:32:18.671Z,1.50
2022-10-25T01:35:11.987Z,2.25
2022-10-25T01:37:49.231Z,2.10
2022-10-25T01:40:25.840Z,2.40
2022-10-25T01:43:02.897Z,1.83
2022-10-25T01:45:45.284Z,1.75
2022-10-25T01:48:21.434Z,2.40
2022-10-25T01:50:48.760Z,2.20
2022-10-25T01:53:16.057Z,1.50
2022-10-25T01:55:57.220Z,1.55
2022-10-25T01:58:39.338Z,1.20
2022-10-25T02:01:14.990Z,1.95
2022-10-25T02:04:05.237Z,1.40
2022-10-25T02:06:52.742Z,1.60
2022-10-25T02:09:36.726Z,1.50
2022-10-25T02:12:07.173Z,1.45
2022-10-25T02:14:49.065Z,1.60
2022-10-25T02:17:23.915Z,1.98
2022-10-25T02:19:54.909Z,1.73
2022-10-25T02:22:25.794Z,1.70
2022-10-25T02:24:53.425Z,1.63
2022-10-25T02:27:23.154Z,1.60
2022-10-25T02:29:52.585Z,2.50
2022-10-25T02:32:19.735Z,5.97
2022-10-25T02:34:50.247Z,7.03
2022-10-25T02:37:18.148Z,8.27
2022-10-25T02:39:46.015Z,4.25
2022-10-25T02:42:12.743Z,6.68
2022-10-25T02:44:39.491Z,4.00
2022-10-25T02:47:06.321Z,3.20
2022-10-25T02:49:33.139Z,3.28
2022-10-25T02:51:59.879Z,4.03
2022-10-25T02:54:26.593Z,2.78
2022-10-25T02:56:54.066Z,2.33
2022-10-25T02:59:21.361Z,2.58
2022-10-25T03:01:48.696Z,6.15
2022-10-25T03:04:15.570Z,2.50
2022-10-25T03:06:42.307Z,2.10
2022-10-25T03:09:09.104Z,1.30
2022-10-25T03:11:35.822Z,1.00
2022-10-25T03:14:02.508Z,1.75
2022-10-25T03:16:29.243Z,1.30
2022-10-25T03:18:59.590Z,1.40
2022-10-25T03:21:26.558Z,1.02
2022-10-25T03:23:53.461Z,2.00
2022-10-25T03:26:20.194Z,1.55
2022-10-25T03:28:46.915Z,1.45
2022-10-25T03:31:15.865Z,2.00
2022-10-25T03:33:43.139Z,1.30
2022-10-25T03:36:10.350Z,1.58
2022-10-25T03:38:37.211Z,1.73
2022-10-25T03:41:04.385Z,1.00
2022-10-25T03:43:31.143Z,0.93
2022-10-25T03:45:58.548Z,1.30
2022-10-25T03:48:25.283Z,1.40
2022-10-25T03:50:54.251Z,1.65
2022-10-25T03:53:21.411Z,1.08
2022-10-25T03:55:48.256Z,2.00
2022-10-25T03:58:14.941Z,1.27
2022-10-25T04:00:41.767Z,1.10
2022-10-25T04:03:09.431Z,1.38
2022-10-25T04:05:36.252Z,1.20
2022-10-25T04:08:03.060Z,1.40
2022-10-25T04:10:29.816Z,1.13
2022-10-25T04:12:56.544Z,0.90
2022-10-25T04:15:23.771Z,0.90
2022-10-25T04:17:52.010Z,1.40
2022-10-25T04:20:19.610Z,1.50
2022-10-25T04:22:46.315Z,1.23
2022-10-25T04:25:13.164Z,1.20
2022-10-25T04:27:39.910Z,1.08
2022-10-25T04:30:07.062Z,1.63
2022-10-25T04:32:33.763Z,0.80
2022-10-25T04:35:00.478Z,1.52
2022-10-25T04:37:27.188Z,1.60
2022-10-25T04:39:53.879Z,1.27
2022-10-25T04:42:20.574Z,0.98
2022-10-25T04:44:47.236Z,1.35
2022-10-25T04:47:14.115Z,0.80
2022-10-25T04:49:40.796Z,1.27
2022-10-25T04:52:07.634Z,1.20
2022-10-25T04:54:34.292Z,1.30
2022-10-25T04:57:01.096Z,1.30
2022-10-25T04:59:27.740Z,1.70
2022-10-25T05:01:54.401Z,1.38
2022-10-25T05:04:21.128Z,0.90
2022-10-25T05:06:47.995Z,1.38
2022-10-25T05:09:14.762Z,1.08
2022-10-25T05:11:41.494Z,1.40
2022-10-25T05:14:08.209Z,1.10
2022-10-25T05:16:36.115Z,1.40
2022-10-25T05:19:03.016Z,0.88
2022-10-25T05:21:30.329Z,0.90
2022-10-25T05:24:01.423Z,1.00
2022-10-25T05:26:29.724Z,0.70
2022-10-25T05:28:56.933Z,0.50
2022-10-25T05:31:28.874Z,0.73
2022-10-25T05:33:58.529Z,3.80
2022-10-25T05:36:25.803Z,1.42
2022-10-25T05:38:52.794Z,2.03
2022-10-25T05:41:19.781Z,6.85
2022-10-25T05:43:47.327Z,1.80
2022-10-25T05:46:21.989Z,1.73
2022-10-25T05:48:50.082Z,1.83
2022-10-25T05:51:33.215Z,1.60
2022-10-25T05:54:03.262Z,1.90
2022-10-25T05:56:31.311Z,1.95
2022-10-25T05:58:58.424Z,1.40
2022-10-25T06:01:26.752Z,2.03
2022-10-25T06:03:55.590Z,2.00
2022-10-25T06:06:22.995Z,1.33
2022-10-25T06:08:49.849Z,1.40
2022-10-25T06:11:19.186Z,1.75
2022-10-25T06:13:46.643Z,1.77
2022-10-25T06:16:18.332Z,2.45
2022-10-25T06:21:20.171Z,1.77
2022-10-25T06:23:48.144Z,1.85
2022-10-25T06:26:18.408Z,1.70
2022-10-25T06:28:45.202Z,1.52
2022-10-25T06:31:14.814Z,1.15
2022-10-25T06:33:41.853Z,1.40
2022-10-25T06:36:17.397Z,1.70
2022-10-25T06:38:45.156Z,2.05
2022-10-25T06:41:14.869Z,1.95
2022-10-25T06:43:41.807Z,1.73
2022-10-25T06:46:20.815Z,1.88
2022-10-25T06:48:47.798Z,1.40
2022-10-25T06:51:14.603Z,1.42
2022-10-25T06:53:41.345Z,1.42
2022-10-25T06:56:14.240Z,1.30
2022-10-25T06:58:42.158Z,1.40
2022-10-25T07:01:14.818Z,2.65
2022-10-25T07:03:42.889Z,1.40
2022-10-25T07:06:12.403Z,1.92
2022-10-25T07:08:41.614Z,1.65
2022-10-25T07:11:14.850Z,1.67
2022-10-25T07:13:41.911Z,2.08
2022-10-25T07:16:11.294Z,2.20
2022-10-25T07:18:38.455Z,1.52
2022-10-25T07:21:16.977Z,2.13
2022-10-25T07:23:44.100Z,1.58
2022-10-25T07:26:14.208Z,1.80
2022-10-25T07:28:42.268Z,1.40
2022-10-25T07:31:12.439Z,1.50
2022-10-25T07:33:39.658Z,1.42
2022-10-25T07:36:11.127Z,1.60
2022-10-25T07:38:38.728Z,1.48
2022-10-25T07:41:07.200Z,1.42
2022-10-25T07:43:34.386Z,1.45
2022-10-25T07:46:01.128Z,1.50
2022-10-25T07:48:28.143Z,1.45
2022-10-25T07:50:54.845Z,1.52
2022-10-25T07:53:21.684Z,1.70
2022-10-25T07:55:57.536Z,1.45
2022-10-25T07:58:24.303Z,1.33
2022-10-25T08:00:51.119Z,1.15
2022-10-25T08:03:18.697Z,1.20
2022-10-25T08:05:46.955Z,1.20
2022-10-25T08:08:14.640Z,1.70
2022-10-25T08:10:43.038Z,1.20
2022-10-25T08:13:09.743Z,1.70
2022-10-25T08:15:36.698Z,1.77
2022-10-25T08:18:04.614Z,1.60
2022-10-25T08:21:00.045Z,1.55
2022-10-25T08:23:18.543Z,1.90
2022-10-25T08:25:45.864Z,2.03
2022-10-25T08:28:13.034Z,1.85
2022-10-25T08:30:42.905Z,1.63
2022-10-25T08:33:11.826Z,1.13
2022-10-25T08:35:39.105Z,1.38
2022-10-25T08:38:06.357Z,1.38
2022-10-25T08:40:51.578Z,1.95
2022-10-25T08:43:42.906Z,1.52
2022-10-25T08:46:17.531Z,1.42
2022-10-25T08:48:48.962Z,1.42
2022-10-25T08:56:28.186Z,1.30
2022-10-25T08:58:58.154Z,1.00
2022-10-25T09:01:44.062Z,1.33
2022-10-25T09:04:11.193Z,1.50
2022-10-25T09:07:06.912Z,1.73
2022-10-25T09:10:06.538Z,1.55
2022-10-25T09:12:55.442Z,1.50
2022-10-25T09:15:43.436Z,1.88
2022-10-25T09:18:18.059Z,1.95
2022-10-25T09:20:52.361Z,1.58
2022-10-25T09:23:29.812Z,1.75
2022-10-25T09:26:04.851Z,2.67
2022-10-25T09:29:02.678Z,1.23
2022-10-25T09:31:36.115Z,1.33
2022-10-25T09:34:07.519Z,1.63
2022-10-25T09:36:40.769Z,1.50
2022-10-25T09:39:17.220Z,1.02
2022-10-25T09:41:49.678Z,1.08
2022-10-25T09:44:33.003Z,0.90
2022-10-25T09:47:19.100Z,0.77
2022-10-25T09:50:12.386Z,1.88
2022-10-25T09:52:54.355Z,1.05
2022-10-25T09:55:43.574Z,1.00
2022-10-25T09:58:31.857Z,0.80
2022-10-25T10:01:17.314Z,0.90
2022-10-25T10:03:46.690Z,1.60
2022-10-25T10:06:31.873Z,0.80
2022-10-25T10:11:34.497Z,0.88
2022-10-25T10:14:09.217Z,1.02
2022-10-25T10:16:44.221Z,0.90
2022-10-25T10:19:21.099Z,0.80
2022-10-25T10:21:57.004Z,0.63
2022-10-25T10:24:36.646Z,0.73
2022-10-25T10:27:08.731Z,0.65
2022-10-25T10:29:38.512Z,0.98
2022-10-25T10:32:21.757Z,0.75
2022-10-25T10:34:57.489Z,0.73
2022-10-25T10:37:29.630Z,0.45
2022-10-25T10:40:06.880Z,0.80
2022-10-25T10:42:39.644Z,1.00
2022-10-25T10:45:07.846Z,0.82
2022-10-25T10:47:42.258Z,0.63
2022-10-25T10:50:32.495Z,0.60
2022-10-25T10:53:03.600Z,0.60
2022-10-25T10:55:34.386Z,0.70
2022-10-25T10:58:16.315Z,0.47
2022-10-25T11:00:55.424Z,0.55
2022-10-25T11:03:48.746Z,0.88
2022-10-25T11:06:34.655Z,0.98
2022-10-25T11:09:16.835Z,0.50
2022-10-25T11:11:44.697Z,0.45
2022-10-25T11:14:14.062Z,0.70
2022-10-25T11:17:17.000Z,0.60
2022-10-25T11:20:21.463Z,0.38
2022-10-25T11:22:54.129Z,0.40
2022-10-25T11:25:38.605Z,0.40
2022-10-25T11:28:27.983Z,0.47
2022-10-25T11:31:14.910Z,0.47
2022-10-25T11:33:56.701Z,0.40
2022-10-25T11:36:46.653Z,0.30
2022-10-25T11:39:48.368Z,0.45
2022-10-25T11:42:33.685Z,0.50
2022-10-25T11:45:18.628Z,0.70
2022-10-25T11:48:06.607Z,0.68
2022-10-25T11:50:51.955Z,0.40
2022-10-25T11:53:30.888Z,0.35
2022-10-25T11:56:25.351Z,0.57
2022-10-25T11:59:20.105Z,0.47
2022-10-25T12:01:54.644Z,0.30
2022-10-25T12:04:38.501Z,0.70
2022-10-25T12:07:14.035Z,0.45
2022-10-25T12:10:18.142Z,0.40
2022-10-25T12:12:50.896Z,0.50
2022-10-25T12:15:27.469Z,0.52
2022-10-25T12:17:54.301Z,0.40
2022-10-25T12:20:25.876Z,0.35
2022-10-25T12:22:57.105Z,0.50
2022-10-25T12:25:32.200Z,0.30
2022-10-25T12:28:09.758Z,0.43
2022-10-25T12:30:37.472Z,0.30
2022-10-25T12:33:29.897Z,0.40
2022-10-25T12:36:03.733Z,0.38
2022-10-25T12:38:34.897Z,0.40
2022-10-25T12:41:21.411Z,0.50
2022-10-25T12:44:03.024Z,0.55
2022-10-25T12:46:48.717Z,0.60
2022-10-25T12:49:40.496Z,0.52
2022-10-25T12:52:29.117Z,0.70
2022-10-25T12:55:03.537Z,0.30
2022-10-25T12:57:59.825Z,0.25
2022-10-25T13:00:30.588Z,0.50
2022-10-25T13:03:19.663Z,0.40
2022-10-25T13:05:55.269Z,0.40
2022-10-25T13:08:24.650Z,0.30
2022-10-25T13:11:00.626Z,1.20
2022-10-25T13:13:30.549Z,0.57
2022-10-25T13:15:59.521Z,0.20
2022-10-25T13:18:34.249Z,0.30
2022-10-25T13:21:02.893Z,0.35
2022-10-25T13:23:53.855Z,0.40
2022-10-25T13:26:25.884Z,0.40
2022-10-25T13:28:55.286Z,0.52
2022-10-25T13:31:30.999Z,0.43
2022-10-25T13:34:12.790Z,0.50
2022-10-25T13:36:55.813Z,0.45
2022-10-25T13:39:37.859Z,0.77
2022-10-25T13:42:16.251Z,0.20
2022-10-25T13:45:01.879Z,0.40
2022-10-25T13:47:41.507Z,0.25
2022-10-25T13:52:52.407Z,0.60
2022-10-25T13:55:22.762Z,0.30
2022-10-25T13:57:54.005Z,0.40
2022-10-25T14:03:08.620Z,0.40
2022-10-25T14:05:53.904Z,0.28
2022-10-25T14:08:43.719Z,0.60
2022-10-25T14:11:20.448Z,0.85
2022-10-25T14:13:59.309Z,0.30
2022-10-25T14:16:30.516Z,0.60
2022-10-25T14:21:27.698Z,0.50
2022-10-25T14:23:54.735Z,0.40
2022-10-25T14:26:23.420Z,0.55
2022-10-25T14:28:50.363Z,0.30
2022-10-25T14:31:22.247Z,0.43
2022-10-25T14:33:55.995Z,0.40
2022-10-25T14:36:28.614Z,0.50
2022-10-25T14:39:00.613Z,0.50
2022-10-25T14:41:27.285Z,0.68
2022-10-25T14:43:55.056Z,0.60
2022-10-25T14:46:24.528Z,0.88
2022-10-25T14:48:57.638Z,0.57
2022-10-25T14:51:29.620Z,0.88
2022-10-25T14:54:05.580Z,0.60
2022-10-25T14:56:37.187Z,0.43
2022-10-25T14:59:06.478Z,0.60
2022-10-25T15:01:34.268Z,0.63
2022-10-25T15:04:01.417Z,0.40
2022-10-25T15:06:31.346Z,0.57
2022-10-25T15:09:36.996Z,0.40
2022-10-25T15:12:10.532Z,0.40
2022-10-25T15:14:37.929Z,0.80
2022-10-25T15:17:16.510Z,0.50
2022-10-25T15:20:03.587Z,0.63
2022-10-25T15:22:38.566Z,0.57
2022-10-25T15:25:22.581Z,0.47
2022-10-25T15:27:51.520Z,0.90
2022-10-25T15:30:41.829Z,0.80
2022-10-25T15:33:15.232Z,0.90
2022-10-25T15:35:51.285Z,1.10
2022-10-25T15:38:18.694Z,0.75
2022-10-25T15:40:47.241Z,0.85
2022-10-25T15:43:13.967Z,0.65
2022-10-25T15:45:41.396Z,0.70
2022-10-25T15:48:14.958Z,0.50
2022-10-25T15:50:53.168Z,0.52
2022-10-25T15:53:20.852Z,0.88
2022-10-25T15:55:49.069Z,0.70
2022-10-25T15:58:16.100Z,2.30
2022-10-25T16:00:43.599Z,2.05
2022-10-25T16:03:20.424Z,2.10
2022-10-25T16:05:49.794Z,1.55
2022-10-25T16:08:16.626Z,1.30
2022-10-25T16:10:44.035Z,1.38
2022-10-25T16:13:15.401Z,1.13
2022-10-25T16:15:42.976Z,1.65
2022-10-25T16:18:11.270Z,1.13
2022-10-25T16:20:38.126Z,0.93
2022-10-25T16:23:04.854Z,0.95
2022-10-25T16:25:33.152Z,1.55
2022-10-25T16:28:01.387Z,1.67
2022-10-25T16:30:34.634Z,1.35
2022-10-25T16:33:01.641Z,1.48
2022-10-25T16:35:34.385Z,1.60
2022-10-25T16:38:01.294Z,1.30
2022-10-25T16:40:39.401Z,1.30
2022-10-25T16:43:06.353Z,1.88
2022-10-25T16:45:38.873Z,1.42
2022-10-25T16:48:06.392Z,1.35
2022-10-25T16:50:34.220Z,1.30
2022-10-25T16:53:03.213Z,0.95
2022-10-25T16:55:31.069Z,1.20
2022-10-25T16:57:58.762Z,1.30
2022-10-25T17:00:26.579Z,1.27
2022-10-25T17:02:53.660Z,1.30
2022-10-25T17:05:23.361Z,1.98
2022-10-25T17:07:50.126Z,2.67
2022-10-25T17:10:19.246Z,2.28
2022-10-25T17:12:48.125Z,2.35
2022-10-25T17:15:15.983Z,2.00
2022-10-25T17:17:42.913Z,1.73
2022-10-25T17:20:11.280Z,2.50
2022-10-25T17:22:39.123Z,1.60
2022-10-25T17:25:08.074Z,1.77
2022-10-25T17:27:38.005Z,1.73
2022-10-25T17:30:06.130Z,1.50
2022-10-25T17:32:32.924Z,2.00
2022-10-25T17:35:01.170Z,2.80
2022-10-25T17:37:28.363Z,2.88
2022-10-25T17:39:55.087Z,2.53
2022-10-25T17:42:22.368Z,2.90
2022-10-25T17:44:49.510Z,2.40
2022-10-25T17:47:16.360Z,2.65
2022-10-25T17:49:43.125Z,2.40
2022-10-25T17:52:10.099Z,2.90
2022-10-25T17:54:38.500Z,2.58
2022-10-25T17:57:05.922Z,3.08
2022-10-25T17:59:33.527Z,3.00
2022-10-25T18:02:00.546Z,2.63
2022-10-25T18:04:27.538Z,2.30
2022-10-25T18:06:54.585Z,2.15
2022-10-25T18:09:21.444Z,2.45
2022-10-25T18:11:48.183Z,2.97
2022-10-25T18:14:15.097Z,6.25
2022-10-25T18:16:42.069Z,4.28
2022-10-25T18:19:13.298Z,3.53
2022-10-25T18:21:40.609Z,3.83
2022-10-25T18:24:07.618Z,5.35
2022-10-25T18:26:35.298Z,2.90
2022-10-25T18:29:02.211Z,2.97
2022-10-25T18:31:29.041Z,2.63
2022-10-25T18:33:58.764Z,1.67
2022-10-25T18:36:27.423Z,2.95
2022-10-25T18:38:54.745Z,3.35
2022-10-25T18:41:27.089Z,2.30
2022-10-25T18:43:54.895Z,1.80
2022-10-25T18:46:22.239Z,1.90
2022-10-25T18:48:52.756Z,1.50
2022-10-25T18:51:21.472Z,1.98
2022-10-25T18:53:48.389Z,1.60
2022-10-25T18:56:19.566Z,1.52
2022-10-25T18:58:48.997Z,1.17
2022-10-25T19:01:20.526Z,1.60
2022-10-25T19:06:14.031Z,1.58
2022-10-25T19:08:40.921Z,1.83
2022-10-25T19:11:09.948Z,1.60
2022-10-25T19:13:37.295Z,1.48
2022-10-25T19:16:04.447Z,1.60
2022-10-25T19:18:32.492Z,2.47
2022-10-25T19:21:07.710Z,1.40
2022-10-25T19:23:35.525Z,1.77
2022-10-25T19:26:05.266Z,1.45
2022-10-25T19:28:32.824Z,2.08
2022-10-25T19:31:18.247Z,1.90
2022-10-25T19:33:46.259Z,2.10
2022-10-25T19:36:13.187Z,1.75
2022-10-25T19:38:40.335Z,1.52
2022-10-25T19:41:12.781Z,2.05
2022-10-25T19:43:39.670Z,3.03
2022-10-25T19:46:07.884Z,3.22
2022-10-25T19:48:35.280Z,3.10
2022-10-25T19:51:10.783Z,3.38
2022-10-25T19:53:37.641Z,3.10
2022-10-25T19:56:10.388Z,2.55
2022-10-25T19:58:41.423Z,2.38
2022-10-25T20:01:16.576Z,3.00
2022-10-25T20:03:45.281Z,2.25
2022-10-25T20:06:18.733Z,2.40
2022-10-25T20:08:49.078Z,1.75
2022-10-25T20:11:17.599Z,1.67
2022-10-25T20:13:44.661Z,1.38
2022-10-25T20:16:13.705Z,4.22
2022-10-25T20:18:42.034Z,4.85
2022-10-25T20:21:17.831Z,2.90
2022-10-25T20:23:50.021Z,2.92
2022-10-25T20:26:18.865Z,2.30
2022-10-25T20:28:46.485Z,2.33
2022-10-25T20:31:14.477Z,4.78
2022-10-25T20:33:41.952Z,4.13
2022-10-25T20:36:11.204Z,3.70
2022-10-25T20:38:38.247Z,2.25
2022-10-25T20:41:10.975Z,2.10
2022-10-25T20:43:38.314Z,1.70
2022-10-25T20:46:06.489Z,3.90
2022-10-25T20:48:33.855Z,4.18
2022-10-25T20:51:04.100Z,3.33
2022-10-25T20:53:34.493Z,3.15
2022-10-25T20:56:01.500Z,3.47
2022-10-25T20:58:28.206Z,3.60
2022-10-25T21:00:57.434Z,6.32
2022-10-25T21:03:26.078Z,5.70
2022-10-25T21:05:57.849Z,5.38
2022-10-25T21:08:25.037Z,6.05
2022-10-25T21:10:57.365Z,5.25
2022-10-25T21:13:24.935Z,5.28
2022-10-25T21:15:52.778Z,2.35
2022-10-25T21:18:20.790Z,2.45
2022-10-25T21:20:48.677Z,2.50
2022-10-25T21:23:15.394Z,1.42
2022-10-25T21:25:42.075Z,1.20
2022-10-25T21:28:09.303Z,1.50
2022-10-25T21:30:36.043Z,1.75
2022-10-25T21:33:03.732Z,1.52
2022-10-25T21:35:32.351Z,1.63
2022-10-25T21:37:59.087Z,1.48
2022-10-25T21:40:26.009Z,1.60
2022-10-25T21:42:52.798Z,1.45
2022-10-25T21:45:19.546Z,1.60
2022-10-25T21:47:46.613Z,1.70
2022-10-25T21:50:15.129Z,1.48
2022-10-25T21:52:41.922Z,1.40
2022-10-25T21:55:09.179Z,1.40
2022-10-25T21:57:36.297Z,1.50
2022-10-25T22:00:03.926Z,1.60
2022-10-25T22:02:39.699Z,1.52
2022-10-25T22:05:06.831Z,1.50
2022-10-25T22:07:33.554Z,1.50
2022-10-25T22:10:00.334Z,1.20
2022-10-25T22:12:27.090Z,1.40
2022-10-25T22:14:54.302Z,1.98
2022-10-25T22:17:21.020Z,1.20
2022-10-25T22:19:47.734Z,1.50
2022-10-25T22:22:14.474Z,1.60
2022-10-25T22:24:41.294Z,1.35
2022-10-25T22:27:08.075Z,1.38
2022-10-25T22:29:34.918Z,1.60
2022-10-25T22:32:01.630Z,1.60
2022-10-25T22:34:28.678Z,1.63
2022-10-25T22:36:55.367Z,1.58
2022-10-25T22:39:22.073Z,1.73
2022-10-25T22:41:52.621Z,2.15
2022-10-25T22:44:19.359Z,1.55
2022-10-25T22:46:46.075Z,1.35
2022-10-25T22:49:16.200Z,1.73
2022-10-25T22:51:42.922Z,1.80
2022-10-25T22:54:09.706Z,1.33
2022-10-25T22:56:36.486Z,1.40
2022-10-25T22:59:05.562Z,1.73
2022-10-25T23:01:37.591Z,1.73
2022-10-25T23:04:09.195Z,1.30
2022-10-25T23:06:38.702Z,1.05
2022-10-25T23:09:11.663Z,1.75
2022-10-25T23:11:40.476Z,1.27
2022-10-25T23:14:13.348Z,1.02
2022-10-25T23:16:43.357Z,1.45
2022-10-25T23:19:10.057Z,1.30
2022-10-25T23:21:36.925Z,1.17
2022-10-25T23:24:03.869Z,1.02
2022-10-25T23:26:33.604Z,0.98
2022-10-25T23:29:01.179Z,1.15
2022-10-25T23:31:29.011Z,1.20
2022-10-25T23:33:57.849Z,1.00
2022-10-25T23:36:27.148Z,1.20
2022-10-25T23:38:55.285Z,1.83
2022-10-25T23:41:22.540Z,1.92
2022-10-25T23:43:49.566Z,0.98
2022-10-25T23:46:16.280Z,1.40
2022-10-25T23:48:43.078Z,1.00
2022-10-25T23:51:12.147Z,1.33
2022-10-25T23:53:39.105Z,1.02
2022-10-25T23:56:07.792Z,1.10
2022-10-25T23:58:34.537Z,1.13
